Time;durP1;ratioP1;P1;durP2;ratioP2;P2;SDS_P1;SDS_P2;PMS_P1;PMS_P2;Temp;Humidity;BMP_temperature;BMP_pressure;BME280_temperature;BME280_humidity;BME280_pressure;Samples;Min_cycle;Max_cycle;Signal;HPM_P1;HPM_P2
2022/03/21 00:02:25;;;;;;;28.73;17.05;;;;;;;3.26;36.71;101915.13;4935981;29;20041;-79
2022/03/21 00:04:51;;;;;;;28.23;16.95;;;;;;;3.25;36.47;101919.41;4935776;29;20074;-80
2022/03/21 00:07:18;;;;;;;30.48;17.38;;;;;;;3.29;36.33;101915.19;4936105;29;20038;-80
2022/03/21 00:09:43;;;;;;;32.75;16.45;;;;;;;3.24;36.73;101916.78;4966417;28;20078;-80
2022/03/21 00:12:13;;;;;;;99.78;49.53;;;;;;;3.22;36.64;101915.91;4935770;29;20038;-80
2022/03/21 00:14:41;;;;;;;55.17;26.65;;;;;;;3.22;36.35;101916.75;4935592;29;20548;-79
2022/03/21 00:17:07;;;;;;;43.03;19.45;;;;;;;3.09;36.71;101895.91;4966561;28;20040;-80
2022/03/21 00:19:32;;;;;;;34.45;17.90;;;;;;;3.15;36.83;101919.19;4935748;29;20028;-80
2022/03/21 00:21:57;;;;;;;31.63;17.10;;;;;;;3.16;36.88;101920.91;4935372;29;20088;-80
2022/03/21 00:24:24;;;;;;;31.52;18.17;;;;;;;3.10;36.87;101915.66;4966552;28;20118;-80
2022/03/21 00:26:49;;;;;;;32.10;17.02;;;;;;;3.12;37.22;101913.97;4934125;29;20038;-80
2022/03/21 00:29:15;;;;;;;30.27;16.88;;;;;;;3.10;36.95;101920.81;4966304;28;20035;-80
2022/03/21 00:31:40;;;;;;;27.75;16.30;;;;;;;3.10;36.91;101907.94;4933944;29;20131;-79
2022/03/21 00:34:06;;;;;;;35.80;18.48;;;;;;;3.11;37.41;101914.81;4935647;29;20035;-79
2022/03/21 00:36:34;;;;;;;30.42;17.92;;;;;;;3.06;37.37;101911.28;4935503;29;20107;-79
2022/03/21 00:38:59;;;;;;;29.90;18.75;;;;;;;3.06;37.48;101909.56;4966093;28;20059;-79
2022/03/21 00:41:25;;;;;;;30.75;17.88;;;;;;;3.05;37.15;101912.13;4966249;28;20119;-79
2022/03/21 00:43:52;;;;;;;32.42;18.23;;;;;;;3.11;37.32;101905.38;4965834;28;20028;-80
2022/03/21 00:46:18;;;;;;;26.90;16.15;;;;;;;3.08;37.03;101907.03;4966246;28;20059;-80
2022/03/21 00:48:43;;;;;;;30.45;17.60;;;;;;;3.03;37.51;101898.34;4935584;29;20032;-80
2022/03/21 00:51:09;;;;;;;28.92;17.75;;;;;;;2.99;37.43;101900.88;4935353;29;20471;-80
2022/03/21 00:53:34;;;;;;;32.13;17.52;;;;;;;2.91;37.71;101891.25;4935239;29;20027;-80
2022/03/21 00:56:00;;;;;;;26.70;16.75;;;;;;;2.98;37.36;101898.25;4935300;29;20032;-79
2022/03/21 00:58:25;;;;;;;76.57;37.63;;;;;;;2.89;37.45;101886.06;4935086;29;20054;-80
2022/03/21 01:00:51;;;;;;;37.03;19.88;;;;;;;3.00;37.43;101905.19;4965900;28;20480;-79
2022/03/21 01:03:16;;;;;;;34.45;18.58;;;;;;;2.92;37.81;101888.69;4935210;29;20032;-79
2022/03/21 01:05:41;;;;;;;34.33;19.52;;;;;;;2.82;37.63;101888.47;4965681;28;20472;-80
2022/03/21 01:08:07;;;;;;;30.60;17.55;;;;;;;2.85;37.74;101891.97;4935405;29;20034;-79
2022/03/21 01:10:33;;;;;;;27.15;16.05;;;;;;;2.85;37.71;101889.41;4965725;28;20101;-80
2022/03/21 01:12:59;;;;;;;34.13;19.25;;;;;;;2.88;38.18;101904.91;4965288;28;20146;-80
2022/03/21 01:15:27;;;;;;;29.88;18.35;;;;;;;2.88;38.10;101902.34;4965712;28;20031;-79
2022/03/21 01:17:56;;;;;;;29.27;17.85;;;;;;;2.91;38.17;101901.56;4934773;29;20147;-80
2022/03/21 01:20:22;;;;;;;34.70;19.25;;;;;;;2.92;38.32;101900.72;4965579;28;20027;-79
2022/03/21 01:22:49;;;;;;;32.28;21.63;;;;;;;2.78;38.38;101866.94;4965389;28;20126;-79
2022/03/21 01:25:15;;;;;;;39.35;22.45;;;;;;;2.91;38.27;101899.84;4934765;29;20047;-80
2022/03/21 01:27:42;;;;;;;31.52;18.60;;;;;;;2.79;38.39;101883.28;4965137;28;20031;-79
2022/03/21 01:30:10;;;;;;;38.75;22.42;;;;;;;2.80;38.52;101897.88;4934836;29;20032;-80
2022/03/21 01:32:36;;;;;;;34.40;20.27;;;;;;;2.70;38.92;101877.09;4934616;29;20028;-80
2022/03/21 01:35:02;;;;;;;35.35;19.00;;;;;;;2.69;39.01;101877.03;4934508;29;20047;-80
2022/03/21 01:37:28;;;;;;;37.33;21.73;;;;;;;2.74;39.27;101896.06;4934687;29;20083;-80
2022/03/21 01:39:53;;;;;;;34.13;20.95;;;;;;;2.72;39.13;101892.56;4965221;28;20024;-80
2022/03/21 01:42:19;;;;;;;37.20;21.05;;;;;;;2.68;39.47;101891.63;4965295;28;20115;-80
2022/03/21 01:44:44;;;;;;;38.80;22.40;;;;;;;2.58;39.72;101881.13;4934543;29;20034;-80
2022/03/21 01:47:10;;;;;;;41.08;22.17;;;;;;;2.51;40.06;101869.81;4965303;28;20032;-80
2022/03/21 01:49:35;;;;;;;35.58;21.52;;;;;;;2.53;39.99;101888.72;4965411;28;20059;-80
2022/03/21 01:52:01;;;;;;;36.50;21.98;;;;;;;2.58;40.02;101891.41;4934457;29;20615;-80
2022/03/21 01:57:11;;;;;;;37.42;21.77;;;;;;;2.49;40.48;101881.78;4934758;29;20103;-80
2022/03/21 01:59:37;;;;;;;39.17;22.35;;;;;;;2.48;40.82;101883.44;4965234;28;20039;-81
2022/03/21 02:02:05;;;;;;;39.10;22.80;;;;;;;2.41;40.93;101881.59;4964960;28;20385;-81
2022/03/21 02:04:31;;;;;;;40.58;23.48;;;;;;;2.43;40.94;101889.34;4935219;29;20031;-81
2022/03/21 02:06:57;;;;;;;42.97;23.38;;;;;;;2.41;41.13;101891.88;4936745;29;20432;-80
2022/03/21 02:09:22;;;;;;;73.22;37.88;;;;;;;2.36;40.78;101882.31;4968948;28;20485;-80
2022/03/21 02:11:48;;;;;;;51.55;28.25;;;;;;;2.32;40.94;101881.41;4968767;28;20035;-80
2022/03/21 02:14:14;;;;;;;47.92;25.27;;;;;;;2.29;41.58;101885.59;4938208;29;20050;-80
2022/03/21 02:16:40;;;;;;;44.45;24.73;;;;;;;2.25;41.75;101882.94;4938117;29;20574;-80
2022/03/21 02:19:13;;;;;;;46.53;24.25;;;;;;;2.09;41.66;101857.72;4968621;28;20028;-80
2022/03/21 02:21:57;;;;;;;43.53;22.90;;;;;;;2.17;41.70;101876.75;4968686;28;20468;-80
2022/03/21 02:24:52;;;;;;;43.00;24.00;;;;;;;2.12;42.67;101870.66;4968882;28;20032;-79
2022/03/21 02:27:18;;;;;;;41.28;23.35;;;;;;;2.10;42.25;101864.59;4937863;29;20032;-80
2022/03/21 02:29:47;;;;;;;45.17;25.77;;;;;;;2.05;42.72;101870.47;4968472;28;20058;-80
2022/03/21 02:32:12;;;;;;;47.72;27.13;;;;;;;2.00;42.75;101873.78;4936496;29;20034;-80
2022/03/21 02:34:40;;;;;;;50.22;29.33;;;;;;;1.92;42.80;101865.03;4937710;29;20039;-80
2022/03/21 02:37:09;;;;;;;61.88;33.25;;;;;;;1.81;42.89;101847.59;4937675;29;20127;-80
2022/03/21 02:39:36;;;;;;;66.18;34.47;;;;;;;1.92;43.12;101867.59;4968536;28;20046;-80
2022/03/21 02:42:02;;;;;;;47.85;26.42;;;;;;;1.83;43.20;101862.25;4968037;28;20455;-79
2022/03/21 02:44:38;;;;;;;50.10;28.77;;;;;;;1.79;43.51;101863.00;4968257;28;20491;-80
2022/03/21 02:47:05;;;;;;;47.90;27.45;;;;;;;1.79;43.26;101865.56;4937203;29;20104;-79
2022/03/21 02:49:31;;;;;;;47.15;26.63;;;;;;;1.75;43.78;101871.44;4937666;29;20031;-79
2022/03/21 02:52:01;;;;;;;51.35;27.95;;;;;;;1.55;43.84;101841.81;4937279;29;20032;-80
2022/03/21 02:54:28;;;;;;;44.63;24.93;;;;;;;1.68;43.85;101869.56;4968279;28;20525;-80
2022/03/21 02:56:54;;;;;;;47.25;25.60;;;;;;;1.66;43.71;101864.38;4967960;28;20032;-79
2022/03/21 02:59:19;;;;;;;49.25;27.90;;;;;;;1.64;43.99;101871.16;4937079;29;20032;-80
2022/03/21 03:01:45;;;;;;;46.53;26.20;;;;;;;1.55;44.56;101858.09;4967990;28;20034;-80
2022/03/21 03:04:10;;;;;;;46.47;26.60;;;;;;;1.55;44.81;101863.22;4968164;28;20567;-80
2022/03/21 03:06:39;;;;;;;45.63;24.88;;;;;;;1.57;44.61;101871.00;4937299;29;20042;-80
2022/03/21 03:09:06;;;;;;;40.50;25.48;;;;;;;1.52;44.60;101865.75;4967729;28;20028;-80
2022/03/21 03:11:32;;;;;;;47.88;27.27;;;;;;;1.48;45.25;101871.63;4937013;29;20071;-80
2022/03/21 03:13:57;;;;;;;49.40;26.08;;;;;;;1.42;45.44;101864.63;4936921;29;20075;-80
2022/03/21 03:16:22;;;;;;;40.55;24.60;;;;;;;1.42;45.27;101871.44;4967578;28;20115;-80
2022/03/21 03:18:48;;;;;;;66.85;36.53;;;;;;;1.34;45.67;101873.81;4967565;28;20032;-80
2022/03/21 03:21:19;;;;;;;73.05;39.17;;;;;;;1.31;45.51;101866.06;4967641;28;20440;-80
2022/03/21 03:23:46;;;;;;;65.68;33.15;;;;;;;1.24;45.82;101861.56;4967600;28;20034;-80
2022/03/21 03:26:11;;;;;;;55.25;29.75;;;;;;;1.12;45.73;101843.28;4935420;29;20103;-80
2022/03/21 03:28:38;;;;;;;56.15;28.60;;;;;;;1.18;46.10;101853.69;4967416;28;20028;-80
2022/03/21 03:31:04;;;;;;;53.08;26.30;;;;;;;1.18;46.28;101861.38;4967327;28;20115;-80
2022/03/21 03:33:30;;;;;;;49.47;26.13;;;;;;;1.11;46.05;101857.81;4967548;28;20118;-80
2022/03/21 03:35:56;;;;;;;47.95;25.75;;;;;;;1.10;46.34;101853.50;4967196;28;20498;-80
2022/03/21 03:38:21;;;;;;;48.20;26.00;;;;;;;1.02;46.56;101851.56;4936617;29;20495;-80
2022/03/21 03:40:47;;;;;;;46.45;27.63;;;;;;;1.09;46.84;101874.84;4936233;29;20027;-80
2022/03/21 03:43:16;;;;;;;45.25;26.50;;;;;;;1.02;46.71;101864.41;4936463;29;20039;-80
2022/03/21 03:45:42;;;;;;;44.78;26.23;;;;;;;1.00;46.97;101866.91;4936319;29;20066;-79
2022/03/21 03:48:08;;;;;;;53.55;27.02;;;;;;;1.00;46.89;101864.31;4967077;28;20043;-80
2022/03/21 03:50:34;;;;;;;50.67;27.10;;;;;;;0.89;46.77;101851.22;4967238;28;20034;-80
2022/03/21 03:52:59;;;;;;;49.40;26.65;;;;;;;0.93;47.33;101871.00;4936101;29;20457;-80
2022/03/21 03:55:26;;;;;;;50.17;27.92;;;;;;;0.82;47.42;101851.84;4936229;29;20039;-80
2022/03/21 03:57:52;;;;;;;53.28;26.65;;;;;;;0.74;47.83;101843.06;4966513;28;20052;-81
2022/03/21 04:00:18;;;;;;;50.13;27.67;;;;;;;0.91;47.53;101874.34;4967034;28;20038;-81
2022/03/21 04:05:29;;;;;;;47.80;27.13;;;;;;;0.84;47.76;101875.84;4936321;29;20074;-81
2022/03/21 04:07:54;;;;;;;49.10;27.00;;;;;;;0.80;48.26;101875.72;4971571;28;20062;-80
2022/03/21 04:10:21;;;;;;;56.10;28.38;;;;;;;0.72;48.09;101862.69;4971859;28;20138;-80
2022/03/21 04:12:48;;;;;;;51.25;27.27;;;;;;;0.72;47.73;101875.53;4955444;28;20055;-80
2022/03/21 04:15:14;;;;;;;52.58;27.23;;;;;;;0.72;48.39;101878.09;4972019;28;20109;-80
2022/03/21 04:17:39;;;;;;;52.75;28.23;;;;;;;0.71;48.48;101884.00;4955745;28;20141;-80
2022/03/21 04:20:06;;;;;;;52.50;27.98;;;;;;;0.69;48.81;101881.41;4971580;28;20027;-80
2022/03/21 04:22:34;;;;;;;56.30;28.88;;;;;;;0.66;48.63;101880.44;4971826;28;20122;-80
2022/03/21 04:25:00;;;;;;;51.55;26.23;;;;;;;0.63;48.80;101871.00;4955269;28;20038;-80
2022/03/21 04:27:25;;;;;;;57.95;29.73;;;;;;;0.64;49.04;101880.41;4970992;28;20043;-80
2022/03/21 04:29:50;;;;;;;52.30;26.33;;;;;;;0.63;49.03;101877.78;4971395;28;20109;-79
2022/03/21 04:32:16;;;;;;;49.53;28.15;;;;;;;0.52;49.50;101871.50;4971538;28;20089;-80
2022/03/21 04:34:41;;;;;;;49.72;28.42;;;;;;;0.59;49.50;101881.09;4971295;28;20035;-80
2022/03/21 04:37:07;;;;;;;50.63;27.63;;;;;;;0.47;49.85;101863.66;4971297;28;20050;-80
2022/03/21 04:39:33;;;;;;;48.28;27.60;;;;;;;0.57;49.53;101887.88;4927211;28;20212;-80
2022/03/21 04:41:59;;;;;;;58.88;30.25;;;;;;;0.51;49.75;101886.00;4913619;29;20072;-80
2022/03/21 04:44:25;;;;;;;63.72;32.72;;;;;;;0.52;49.53;101889.44;4913884;29;20401;-80
2022/03/21 04:46:51;;;;;;;54.92;30.38;;;;;;;0.40;50.06;101872.84;4913721;29;20043;-80
2022/03/21 04:49:16;;;;;;;55.60;30.50;;;;;;;0.47;49.79;101885.03;4913970;29;20487;-80
2022/03/21 04:51:42;;;;;;;49.95;27.10;;;;;;;0.35;50.16;101869.28;4898174;29;20525;-80
2022/03/21 04:54:07;;;;;;;53.83;27.90;;;;;;;0.42;50.19;101884.03;4951444;28;20035;-80
2022/03/21 04:56:33;;;;;;;54.63;28.25;;;;;;;0.31;50.41;101862.31;4935862;29;20098;-80
2022/03/21 04:58:58;;;;;;;54.05;27.98;;;;;;;0.40;50.45;101892.50;4951600;29;20031;-81
2022/03/21 05:01:23;;;;;;;50.88;29.42;;;;;;;0.27;50.71;101870.75;4935760;29;20039;-81
2022/03/21 05:03:49;;;;;;;52.65;30.98;;;;;;;0.29;51.19;101873.34;4951921;29;20031;-80
2022/03/21 05:06:16;;;;;;;55.53;31.67;;;;;;;0.37;50.92;101892.38;4965796;28;20102;-81
2022/03/21 05:08:42;;;;;;;49.03;27.80;;;;;;;0.39;50.87;101891.63;4987158;28;20525;-80
2022/03/21 05:11:08;;;;;;;52.88;29.40;;;;;;;0.37;51.15;101885.56;4986965;28;20445;-80
2022/03/21 05:13:33;;;;;;;59.10;31.52;;;;;;;0.34;50.58;101874.34;4986966;28;20050;-80
2022/03/21 05:15:59;;;;;;;66.38;37.20;;;;;;;0.45;50.68;101902.06;4986868;28;20102;-80
2022/03/21 05:18:24;;;;;;;62.40;36.50;;;;;;;0.46;51.17;101903.81;4970944;28;20079;-80
2022/03/21 05:20:50;;;;;;;62.75;36.92;;;;;;;0.56;50.85;101892.13;4970956;28;20130;-80
2022/03/21 05:31:28;;;;;;;51.00;29.17;;;;;;;2.61;46.96;101909.44;4954614;28;20046;-81
2022/03/21 05:36:37;;;;;;;52.42;31.00;;;;;;;3.11;44.92;101899.34;4935038;29;20547;-80
2022/03/21 05:39:03;;;;;;;54.13;30.77;;;;;;;3.22;44.18;101893.59;4965178;28;20076;-80
2022/03/21 05:41:29;;;;;;;51.03;29.15;;;;;;;3.61;44.25;101902.03;4934679;29;20156;-79
2022/03/21 05:43:55;;;;;;;60.33;31.80;;;;;;;4.17;42.61;101908.16;4934486;29;20569;-80
2022/03/21 05:46:21;;;;;;;60.08;32.58;;;;;;;5.14;40.76;101884.53;4934544;29;20036;-80
2022/03/21 05:48:59;;;;;;;54.65;30.63;;;;;;;5.93;38.99;101896.53;4934800;29;20054;-80
2022/03/21 05:51:30;;;;;;;55.83;32.33;;;;;;;6.03;38.53;101905.25;4934582;29;20184;-80
2022/03/21 05:53:57;;;;;;;53.95;29.50;;;;;;;5.67;38.38;101888.50;4965127;28;20038;-80
2022/03/21 05:56:25;;;;;;;49.45;29.42;;;;;;;5.85;38.47;101890.38;4965220;28;20044;-80
2022/03/21 05:58:51;;;;;;;63.28;34.70;;;;;;;6.37;37.48;101901.19;4970266;28;20034;-80
2022/03/21 06:01:22;;;;;;;57.92;33.08;;;;;;;7.38;35.97;101883.50;4953968;28;20403;-79
2022/03/21 06:03:52;;;;;;;64.32;33.03;;;;;;;8.14;34.72;101914.69;4970449;28;20034;-80
2022/03/21 06:06:21;;;;;;;57.33;30.90;;;;;;;7.72;34.30;101887.00;4970215;28;20038;-80
2022/03/21 06:08:47;;;;;;;56.42;31.58;;;;;;;7.90;34.08;101910.38;4970349;28;20038;-80
2022/03/21 06:11:13;;;;;;;60.78;31.98;;;;;;;7.76;34.58;101906.91;4970258;28;20557;-80
2022/03/21 06:13:42;;;;;;;56.17;32.42;;;;;;;8.89;32.93;101911.09;4954074;28;20142;-80
2022/03/21 06:16:08;;;;;;;59.13;32.80;;;;;;;9.57;31.55;101883.06;4970168;28;20031;-80
2022/03/21 06:18:35;;;;;;;49.47;28.98;;;;;;;9.53;31.60;101913.41;4970424;28;20546;-81
2022/03/21 06:21:03;;;;;;;53.35;29.90;;;;;;;8.83;32.34;101916.34;4970097;28;20057;-82
2022/03/21 06:23:29;;;;;;;48.60;29.60;;;;;;;8.85;32.42;101914.59;4954073;28;20034;-80
2022/03/21 06:25:56;;;;;;;51.78;32.25;;;;;;;9.31;31.45;101909.19;4970680;28;20050;-81
2022/03/21 06:28:23;;;;;;;51.50;31.42;;;;;;;10.29;30.45;101918.97;4970293;28;20160;-80
2022/03/21 06:30:51;;;;;;;49.05;31.02;;;;;;;9.70;30.69;101897.69;4934820;28;20048;-81
2022/03/21 06:33:17;;;;;;;56.90;31.20;;;;;;;9.08;31.21;101922.31;4964739;28;20045;-80
2022/03/21 06:35:43;;;;;;;55.67;31.27;;;;;;;8.95;32.13;101926.69;4965017;28;20023;-81
2022/03/21 06:38:10;;;;;;;50.55;29.10;;;;;;;9.88;31.16;101917.50;4933720;29;20123;-80
2022/03/21 06:40:36;;;;;;;50.03;29.52;;;;;;;10.66;29.49;101927.25;4965194;28;20059;-81
2022/03/21 06:43:02;;;;;;;51.15;30.83;;;;;;;9.60;30.37;101925.50;4965015;28;20036;-80
2022/03/21 06:45:28;;;;;;;50.70;28.58;;;;;;;9.44;30.99;101931.69;4934186;29;20019;-83
2022/03/21 06:47:53;;;;;;;49.85;28.50;;;;;;;9.89;31.17;101927.03;4932567;29;20039;-87
2022/03/21 06:50:19;;;;;;;45.85;27.75;;;;;;;11.22;29.79;101924.00;4932950;28;20059;-85
2022/03/21 06:52:44;;;;;;;47.35;31.30;;;;;;;11.13;29.24;101926.72;4935617;28;20051;-83
2022/03/21 06:55:10;;;;;;;51.78;30.77;;;;;;;10.89;29.68;101930.47;4937400;29;20032;-84
2022/03/21 06:57:36;;;;;;;51.20;30.80;;;;;;;11.14;29.19;101927.56;4965135;28;20055;-84
2022/03/21 07:00:04;;;;;;;45.50;27.15;;;;;;;11.71;29.11;101932.88;4964946;28;20071;-80
2022/03/21 07:02:30;;;;;;;45.35;26.92;;;;;;;11.69;28.12;101929.44;4937440;29;20440;-83
2022/03/21 07:04:55;;;;;;;38.60;25.73;;;;;;;11.36;27.84;101943.81;4936063;29;20103;-81
2022/03/21 07:07:21;;;;;;;43.17;27.48;;;;;;;12.29;26.76;101936.34;4936733;29;20045;-82
2022/03/21 07:09:46;;;;;;;40.10;26.63;;;;;;;12.20;26.76;101934.75;4968137;28;20036;-83
2022/03/21 07:12:12;;;;;;;39.55;24.90;;;;;;;12.22;27.06;101941.69;4967680;28;20039;-80
2022/03/21 07:14:37;;;;;;;42.35;25.25;;;;;;;13.37;26.38;101936.03;4936890;29;20037;-77
2022/03/21 07:17:03;;;;;;;42.72;25.92;;;;;;;14.95;25.08;101931.19;4964336;28;20110;-77
2022/03/21 07:19:29;;;;;;;45.28;26.65;;;;;;;16.43;23.17;101925.69;4936828;29;20059;-78
2022/03/21 07:21:55;;;;;;;39.53;25.58;;;;;;;17.38;21.86;101913.44;4954129;28;20023;-78
2022/03/21 07:24:20;;;;;;;34.08;22.73;;;;;;;17.15;21.87;101927.47;4936361;29;20130;-79
2022/03/21 07:26:45;;;;;;;34.97;23.80;;;;;;;16.19;22.03;101923.88;4937086;29;20035;-79
2022/03/21 07:29:12;;;;;;;37.70;23.50;;;;;;;16.96;22.03;101936.06;4936629;29;20031;-79
2022/03/21 07:31:38;;;;;;;39.60;23.38;;;;;;;18.67;21.11;101930.94;4936806;29;20024;-79
2022/03/21 07:34:04;;;;;;;36.78;24.17;;;;;;;19.80;19.20;101932.78;4967369;28;20046;-79
2022/03/21 07:36:30;;;;;;;35.80;25.63;;;;;;;19.44;18.48;101927.47;4936678;29;20020;-81
2022/03/21 07:38:57;;;;;;;32.60;23.13;;;;;;;21.26;18.29;101928.75;4936717;29;20024;-78
2022/03/21 07:41:27;;;;;;;39.42;25.48;;;;;;;21.84;16.86;101935.25;4936457;29;20035;-79
2022/03/21 07:43:57;;;;;;;39.92;24.75;;;;;;;22.35;16.54;101938.47;4936729;29;20111;-79
2022/03/21 07:49:07;;;;;;;45.95;26.95;;;;;;;23.10;15.96;101948.03;4936548;29;19962;-82
2022/03/21 07:51:32;;;;;;;39.92;25.75;;;;;;;21.72;16.23;101955.38;4936729;29;20044;-82
2022/03/21 07:53:57;;;;;;;40.60;26.65;;;;;;;18.89;18.00;101951.16;4936681;29;20028;-82
2022/03/21 07:56:23;;;;;;;36.83;26.08;;;;;;;16.07;20.16;101953.22;4967196;28;20468;-83
2022/03/21 07:58:49;;;;;;;39.00;26.98;;;;;;;14.26;22.10;101965.38;4967146;28;20020;-79
2022/03/21 08:01:14;;;;;;;40.58;25.70;;;;;;;13.18;23.55;101967.75;4935898;29;20043;-81
2022/03/21 08:03:40;;;;;;;43.00;26.27;;;;;;;12.28;25.00;101963.38;4935180;29;20030;-83
2022/03/21 08:06:10;;;;;;;38.33;25.05;;;;;;;11.69;25.88;101961.63;4936128;29;20035;-80
2022/03/21 08:08:36;;;;;;;44.72;27.67;;;;;;;11.02;26.91;101988.56;4936150;29;20096;-77
2022/03/21 08:11:03;;;;;;;38.47;25.10;;;;;;;10.87;27.69;101979.19;4936104;29;20114;-78
2022/03/21 08:13:29;;;;;;;37.15;24.30;;;;;;;10.95;27.70;101971.25;4935922;29;20051;-79
2022/03/21 08:15:54;;;;;;;36.05;24.15;;;;;;;10.95;27.91;101968.63;4936087;29;20063;-79
2022/03/21 08:18:19;;;;;;;43.20;27.30;;;;;;;10.93;28.71;101970.41;4966427;28;20082;-79
2022/03/21 08:20:45;;;;;;;48.05;27.92;;;;;;;10.53;29.07;101976.00;4936291;29;20380;-78
2022/03/21 08:23:13;;;;;;;40.95;24.63;;;;;;;10.15;29.11;101974.56;4935716;29;20039;-78
2022/03/21 08:25:40;;;;;;;35.05;23.52;;;;;;;9.86;29.54;101972.19;4935819;29;20038;-78
2022/03/21 08:28:07;;;;;;;38.60;23.90;;;;;;;9.60;29.22;101961.91;4935558;29;20539;-79
2022/03/21 08:30:35;;;;;;;44.85;23.08;;;;;;;9.55;30.09;101973.22;4935723;29;20032;-78
2022/03/21 08:33:06;;;;;;;37.88;22.13;;;;;;;9.60;30.05;101968.88;4935806;29;20031;-78
2022/03/21 08:35:32;;;;;;;40.30;25.08;;;;;;;9.47;29.77;101958.53;4935667;29;20053;-78
2022/03/21 08:37:58;;;;;;;38.35;23.95;;;;;;;9.30;29.81;101969.88;4935602;29;20028;-79
2022/03/21 08:40:23;;;;;;;36.42;24.25;;;;;;;8.91;30.01;101962.22;4935287;29;20419;-78
2022/03/21 08:42:49;;;;;;;38.65;22.38;;;;;;;8.79;31.06;101964.84;4935644;29;20087;-79
2022/03/21 08:45:15;;;;;;;33.15;22.48;;;;;;;8.85;31.42;101970.06;4935134;29;20487;-78
2022/03/21 08:47:41;;;;;;;42.97;22.58;;;;;;;8.79;31.74;101948.41;4935514;29;20024;-78
2022/03/21 08:50:08;;;;;;;38.55;22.08;;;;;;;8.83;31.86;101929.34;4935343;29;20110;-79
2022/03/21 08:52:34;;;;;;;34.72;21.63;;;;;;;9.02;31.64;101948.31;4958363;28;20519;-81
2022/03/21 08:55:00;;;;;;;34.55;21.52;;;;;;;8.99;31.53;101937.06;4915003;29;20028;-80
2022/03/21 08:57:25;;;;;;;35.45;23.70;;;;;;;9.07;31.47;101946.59;4916111;29;20348;-79
2022/03/21 08:59:52;;;;;;;36.60;22.33;;;;;;;8.97;31.19;101923.22;4914685;29;20481;-78
2022/03/21 09:02:18;;;;;;;46.70;22.77;;;;;;;9.11;31.15;101948.31;4915976;29;20036;-82
2022/03/21 09:04:45;;;;;;;33.15;20.05;;;;;;;9.29;30.91;101948.22;4916167;29;20087;-81
2022/03/21 09:07:13;;;;;;;33.78;20.10;;;;;;;9.28;30.42;101937.84;4916221;29;20028;-79
2022/03/21 09:09:38;;;;;;;30.80;21.00;;;;;;;9.30;30.57;101949.06;4916168;29;20066;-83
2022/03/21 09:12:04;;;;;;;34.25;19.83;;;;;;;9.19;30.11;101930.94;4916076;29;20067;-80
2022/03/21 09:14:29;;;;;;;33.85;20.08;;;;;;;9.25;30.17;101938.69;4915338;29;20123;-81
2022/03/21 09:16:56;;;;;;;34.80;21.13;;;;;;;9.27;29.95;101939.56;4914818;29;20480;-80
2022/03/21 09:19:23;;;;;;;29.73;19.42;;;;;;;9.31;29.96;101949.06;4914525;29;20048;-79
2022/03/21 09:21:50;;;;;;;33.30;20.83;;;;;;;9.12;30.34;101924.91;4915846;29;20024;-79
2022/03/21 09:24:15;;;;;;;32.45;21.02;;;;;;;9.10;30.68;101931.84;4915745;29;20468;-81
2022/03/21 09:26:41;;;;;;;31.98;18.80;;;;;;;9.15;30.29;101926.63;4916113;29;20059;-81
2022/03/21 09:29:06;;;;;;;32.65;19.02;;;;;;;9.23;30.01;101936.13;4914362;29;20365;-84
2022/03/21 09:31:32;;;;;;;25.40;17.17;;;;;;;9.28;30.21;101919.63;4914517;29;20111;-82
2022/03/21 09:33:59;;;;;;;24.50;16.13;;;;;;;9.39;29.76;101933.44;4914563;29;20036;-81
2022/03/21 09:36:25;;;;;;;30.50;17.45;;;;;;;9.34;29.04;101917.84;4914154;29;20032;-81
2022/03/21 09:38:50;;;;;;;26.95;16.50;;;;;;;9.45;29.02;101926.47;4914433;29;20087;-81
2022/03/21 09:41:22;;;;;;;20.92;15.43;;;;;;;9.46;28.49;101909.97;4914083;29;20028;-81
2022/03/21 09:43:53;;;;;;;25.75;16.25;;;;;;;9.55;28.25;101908.19;4914509;29;20498;-80
2022/03/21 09:46:20;;;;;;;21.85;13.50;;;;;;;9.62;27.41;101928.09;4915529;29;20068;-81
2022/03/21 09:48:51;;;;;;;24.90;14.02;;;;;;;9.65;27.40;101908.16;4914409;29;20055;-81
2022/03/21 09:51:21;;;;;;;25.23;12.88;;;;;;;9.71;26.81;101909.81;4914085;29;20038;-81
2022/03/21 09:53:47;;;;;;;21.85;13.68;;;;;;;9.69;27.45;101906.34;4915564;29;20038;-80
2022/03/21 09:56:14;;;;;;;19.23;12.98;;;;;;;9.84;27.60;101916.66;4913931;29;20032;-80
2022/03/21 09:58:40;;;;;;;21.40;13.00;;;;;;;9.88;27.37;101902.75;4914265;29;20135;-79
2022/03/21 10:01:06;;;;;;;18.17;13.52;;;;;;;10.04;27.11;101907.84;4915518;29;20032;-79
2022/03/21 10:03:34;;;;;;;18.85;12.98;;;;;;;10.12;26.92;101899.09;4913972;29;20032;-79
2022/03/21 10:06:00;;;;;;;19.33;14.18;;;;;;;10.02;26.91;101913.06;4914170;29;20539;-79
2022/03/21 10:08:27;;;;;;;21.77;13.07;;;;;;;9.98;26.01;101908.75;4913946;29;20516;-79
2022/03/21 10:10:57;;;;;;;19.98;12.10;;;;;;;9.93;26.25;101902.72;4913981;29;20028;-79
2022/03/21 10:13:26;;;;;;;21.48;14.10;;;;;;;9.96;26.25;101908.78;4915087;29;20052;-79
2022/03/21 10:16:05;;;;;;;27.17;14.70;;;;;;;10.09;26.01;101903.47;4914075;29;20036;-79
2022/03/21 10:18:30;;;;;;;17.92;13.32;;;;;;;10.09;26.41;101906.94;4915569;29;20440;-79
2022/03/21 10:21:10;;;;;;;19.15;12.77;;;;;;;9.94;26.07;101891.41;4914075;29;20031;-79
2022/03/21 10:23:35;;;;;;;22.88;13.38;;;;;;;10.00;26.45;101886.19;4931602;29;20131;-79
2022/03/21 10:26:25;;;;;;;18.67;12.93;;;;;;;10.14;26.52;101904.28;4933477;29;20608;-79
2022/03/21 10:28:52;;;;;;;20.05;12.75;;;;;;;10.17;25.73;101888.63;4878647;29;20068;-79
2022/03/21 10:31:40;;;;;;;14.02;11.15;;;;;;;10.30;25.28;101881.59;4878511;29;20473;-79
2022/03/21 10:34:11;;;;;;;15.10;9.80;;;;;;;10.32;23.89;101887.66;4878747;29;20132;-79
2022/03/21 10:37:09;;;;;;;16.10;10.32;;;;;;;10.37;24.73;101889.34;4878595;29;20033;-79
2022/03/21 10:39:38;;;;;;;16.45;11.40;;;;;;;10.42;25.33;101882.34;4862749;29;20041;-79
2022/03/21 10:42:10;;;;;;;18.13;12.55;;;;;;;10.29;24.58;101865.13;4878474;29;20049;-79
2022/03/21 10:44:36;;;;;;;14.45;10.35;;;;;;;10.32;25.17;101867.66;4878446;29;20120;-79
2022/03/21 10:47:07;;;;;;;12.85;9.07;;;;;;;10.46;24.76;101876.22;4881598;29;20401;-79
2022/03/21 10:49:35;;;;;;;14.32;9.75;;;;;;;10.49;24.00;101871.00;4881193;29;20075;-79
2022/03/21 10:52:03;;;;;;;13.98;9.35;;;;;;;10.51;24.29;101865.75;4897130;29;20516;-79
2022/03/21 10:54:57;;;;;;;16.27;10.38;;;;;;;10.72;23.87;101867.25;4881102;29;20045;-78
2022/03/21 10:57:31;;;;;;;12.82;9.95;;;;;;;10.49;23.29;101852.75;4862445;29;20083;-79
2022/03/21 11:00:15;;;;;;;15.75;11.02;;;;;;;10.62;23.33;101882.13;4862619;29;20093;-78
2022/03/21 11:03:05;;;;;;;15.05;10.32;;;;;;;10.60;23.57;101883.88;4878186;29;20082;-78
2022/03/21 11:05:33;;;;;;;15.90;10.05;;;;;;;10.47;23.77;101869.28;4884138;29;20037;-77
2022/03/21 11:07:58;;;;;;;17.63;10.82;;;;;;;10.37;23.50;101845.06;4881035;29;20045;-77
2022/03/21 11:10:26;;;;;;;15.13;11.00;;;;;;;10.41;23.28;101848.50;4896698;29;20120;-78
2022/03/21 11:12:53;;;;;;;15.68;10.38;;;;;;;10.46;23.60;101860.59;4896708;29;20066;-78
2022/03/21 11:15:19;;;;;;;18.95;10.45;;;;;;;10.48;23.43;101856.22;4896553;29;20153;-78
2022/03/21 11:17:45;;;;;;;15.50;10.68;;;;;;;10.51;23.00;101849.25;4881072;29;20045;-78
2022/03/21 11:20:12;;;;;;;19.35;11.43;;;;;;;10.44;23.23;101841.50;4896658;29;20119;-78
2022/03/21 11:22:39;;;;;;;18.20;11.57;;;;;;;10.43;23.68;101844.97;4896350;29;20726;-78
2022/03/21 11:25:07;;;;;;;17.08;9.43;;;;;;;10.56;23.79;101847.47;4896460;29;20035;-78
2022/03/21 11:27:45;;;;;;;14.38;10.55;;;;;;;10.68;23.19;101850.78;4896179;29;20048;-79
2022/03/21 11:30:16;;;;;;;13.98;9.80;;;;;;;10.77;23.32;101844.59;4880775;29;20032;-78
2022/03/21 11:32:54;;;;;;;18.40;10.55;;;;;;;10.82;23.54;101847.13;4896844;29;20044;-79
2022/03/21 11:35:26;;;;;;;39.17;11.98;;;;;;;10.76;23.39;101842.00;4936243;29;20047;-80